Time;durP1;ratioP1;P1;durP2;ratioP2;P2;SDS_P1;SDS_P2;PMS_P1;PMS_P2;Temp;Humidity;BMP_temperature;BMP_pressure;BME280_temperature;BME280_humidity;BME280_pressure;Samples;Min_cycle;Max_cycle;Signal;HPM_P1;HPM_P2
2023/03/22 00:01:35;;;;;;;3.12;2.53;;;;;;;11.51;51.64;99855.63;5322834;26;34264;-83
2023/03/22 00:04:03;;;;;;;0.75;0.75;;;;;;;11.41;52.09;99857.00;5304589;26;33446;-84
2023/03/22 00:06:31;;;;;;;0.57;0.57;;;;;;;11.38;52.31;99857.13;5304560;26;33048;-84
2023/03/22 00:08:59;;;;;;;1.05;0.95;;;;;;;11.39;52.15;99853.53;5304646;26;32858;-84
2023/03/22 00:11:29;;;;;;;1.42;0.75;;;;;;;11.50;51.75;99853.94;5304662;26;33825;-85
2023/03/22 00:13:57;;;;;;;4.45;2.60;;;;;;;11.45;51.92;99855.06;5305165;26;33792;-85
2023/03/22 00:16:26;;;;;;;0.40;0.40;;;;;;;11.43;51.90;99846.34;5324146;26;33186;-85
2023/03/22 00:18:55;;;;;;;1.37;0.85;;;;;;;11.33;52.17;99848.56;5323908;26;33568;-85
2023/03/22 00:21:23;;;;;;;2.78;0.65;;;;;;;11.35;52.05;99852.00;5324671;26;34029;-85
2023/03/22 00:23:51;;;;;;;0.32;0.32;;;;;;;11.28;52.04;99846.13;5323605;26;33171;-84
2023/03/22 00:26:19;;;;;;;1.45;1.35;;;;;;;11.27;52.10;99846.19;5323602;26;32537;-84
2023/03/22 00:28:47;;;;;;;0.03;0.03;;;;;;;11.21;52.05;99843.84;5323580;26;33627;-84
2023/03/22 00:31:15;;;;;;;1.67;1.58;;;;;;;11.05;52.71;99845.44;5323548;26;33752;-84
2023/03/22 00:33:43;;;;;;;0.75;0.75;;;;;;;11.08;52.51;99845.31;5305371;26;33196;-84
2023/03/22 00:36:11;;;;;;;0.62;0.62;;;;;;;11.10;51.96;99849.59;5324091;26;33652;-84
2023/03/22 00:38:40;;;;;;;0.40;0.40;;;;;;;10.97;52.39;99843.16;5305536;26;32302;-84
2023/03/22 00:41:16;;;;;;;4.05;1.55;;;;;;;11.05;52.24;99845.44;5306142;26;33680;-84
2023/03/22 00:43:45;;;;;;;1.05;1.00;;;;;;;11.01;52.28;99839.44;5305537;26;33307;-84
2023/03/22 00:46:15;;;;;;;2.05;0.43;;;;;;;10.94;52.59;99844.16;5305509;26;35162;-84
2023/03/22 00:48:43;;;;;;;2.62;2.42;;;;;;;10.96;52.36;99837.00;5305426;26;32727;-84
2023/03/22 00:51:16;;;;;;;0.60;0.60;;;;;;;10.90;52.59;99842.56;5305779;26;32509;-84
2023/03/22 00:53:48;;;;;;;2.15;1.90;;;;;;;10.75;52.91;99851.16;5324269;26;34151;-84
2023/03/22 00:56:17;;;;;;;2.47;1.10;;;;;;;10.56;53.38;99852.88;5324236;26;34617;-84
2023/03/22 00:58:47;;;;;;;0.75;0.52;;;;;;;10.65;53.35;99855.13;5306094;26;32508;-84
2023/03/22 01:01:16;;;;;;;0.82;0.52;;;;;;;10.46;54.16;99848.00;5301073;26;32551;-84
2023/03/22 01:03:44;;;;;;;0.77;0.77;;;;;;;10.51;53.67;99848.66;5323476;26;33911;-84
2023/03/22 01:06:13;;;;;;;3.20;2.00;;;;;;;10.39;53.89;99845.66;5305733;26;34220;-84
2023/03/22 01:08:41;;;;;;;0.55;0.55;;;;;;;10.41;53.73;99844.69;5305118;26;33286;-84
2023/03/22 01:11:10;;;;;;;0.57;0.52;;;;;;;10.43;53.73;99836.69;5323899;26;33763;-83
2023/03/22 01:13:40;;;;;;;0.35;0.35;;;;;;;10.32;53.85;99839.81;5323174;26;34424;-83
2023/03/22 01:16:09;;;;;;;0.45;0.45;;;;;;;10.38;53.85;99838.69;5324069;26;33974;-83
2023/03/22 01:18:38;;;;;;;0.35;0.35;;;;;;;10.34;54.11;99832.66;5305301;26;33524;-83
2023/03/22 01:21:06;;;;;;;3.67;1.60;;;;;;;10.35;54.09;99842.31;5305215;26;34155;-83
2023/03/22 01:23:35;;;;;;;1.62;1.52;;;;;;;10.34;54.18;99827.38;5287826;26;33356;-83
2023/03/22 01:26:03;;;;;;;0.70;0.70;;;;;;;10.33;54.11;99830.94;5304253;26;32936;-83
2023/03/22 01:28:31;;;;;;;1.25;1.20;;;;;;;10.24;54.76;99829.56;5304943;26;33021;-83
2023/03/22 01:31:00;;;;;;;6.18;1.45;;;;;;;10.29;54.75;99832.00;5304981;26;34344;-83
2023/03/22 01:33:30;;;;;;;1.83;1.73;;;;;;;10.30;54.77;99828.44;5323964;26;34799;-83
2023/03/22 01:36:00;;;;;;;4.37;0.37;;;;;;;10.45;53.64;99830.44;5324322;26;33891;-84
2023/03/22 01:38:31;;;;;;;1.85;0.80;;;;;;;10.36;53.64;99828.19;5306055;26;32219;-85
2023/03/22 01:40:59;;;;;;;0.55;0.47;;;;;;;10.15;53.93;99821.13;5305688;26;33083;-84
2023/03/22 01:43:27;;;;;;;1.50;1.08;;;;;;;10.11;54.26;99833.63;5323820;26;34628;-84
2023/03/22 01:45:56;;;;;;;0.35;0.35;;;;;;;9.92;54.67;99830.88;5323322;26;33777;-84
2023/03/22 01:48:36;;;;;;;2.60;1.55;;;;;;;9.86;54.83;99823.19;5323904;26;33374;-84
2023/03/22 01:51:16;;;;;;;2.08;1.37;;;;;;;9.83;54.74;99828.59;5305724;26;32958;-85
2023/03/22 01:53:49;;;;;;;0.65;0.65;;;;;;;9.83;54.87;99830.38;5305822;26;33954;-85
2023/03/22 01:56:21;;;;;;;0.73;0.73;;;;;;;9.73;55.05;99833.37;5305986;26;34027;-85
2023/03/22 01:58:52;;;;;;;2.70;1.25;;;;;;;9.56;55.41;99829.69;5305312;26;32643;-83
2023/03/22 02:01:23;;;;;;;0.35;0.35;;;;;;;9.58;55.16;99830.47;5288037;26;32315;-83
2023/03/22 02:04:07;;;;;;;2.67;2.47;;;;;;;9.55;55.50;99831.47;5305449;26;33173;-83
2023/03/22 02:06:37;;;;;;;1.20;1.17;;;;;;;9.57;55.66;99840.16;5323611;26;33570;-83
2023/03/22 02:09:10;;;;;;;4.90;0.88;;;;;;;9.54;55.73;99831.50;5305909;26;34195;-83
2023/03/22 02:11:41;;;;;;;1.08;1.00;;;;;;;9.60;55.55;99833.91;5304427;26;33530;-84
2023/03/22 02:15:06;;;;;;;3.65;1.25;;;;;;;9.50;55.91;99846.59;5306151;26;35102;-84
2023/03/22 02:18:10;;;;;;;0.57;0.50;;;;;;;9.49;55.94;99845.75;5257368;27;34536;-84
2023/03/22 02:21:12;;;;;;;0.25;0.25;;;;;;;9.46;55.97;99840.59;5322679;26;32364;-84
2023/03/22 02:23:58;;;;;;;0.75;0.75;;;;;;;9.35;56.59;99842.78;5323091;26;34161;-83
2023/03/22 02:26:49;;;;;;;0.40;0.17;;;;;;;9.63;55.09;99846.97;5323075;26;34384;-84
2023/03/22 02:29:33;;;;;;;0.40;0.40;;;;;;;9.35;55.59;99855.97;5302581;26;33250;-83
2023/03/22 02:32:40;;;;;;;0.98;0.40;;;;;;;9.41;55.20;99860.12;5321309;26;33997;-83
2023/03/22 02:35:29;;;;;;;2.75;1.65;;;;;;;9.19;55.58;99860.06;5328781;26;33819;-85
2023/03/22 02:38:03;;;;;;;0.30;0.30;;;;;;;9.14;56.13;99860.22;5342339;26;33755;-86
2023/03/22 02:40:53;;;;;;;0.22;0.22;;;;;;;9.12;56.03;99854.19;5305157;26;34379;-85
2023/03/22 02:43:40;;;;;;;1.45;1.35;;;;;;;9.10;55.98;99855.13;5323659;26;33048;-85
2023/03/22 02:46:42;;;;;;;0.73;0.70;;;;;;;9.00;56.43;99854.59;5299832;26;33686;-84
2023/03/22 02:49:55;;;;;;;0.55;0.55;;;;;;;8.95;57.03;99848.66;5279771;26;34402;-84
2023/03/22 02:52:28;;;;;;;;;;;;;;;8.97;56.72;99855.59;5323515;26;32297;-82
2023/03/22 02:55:06;;;;;;;;;;;;;;;8.88;57.29;99857.72;5305527;26;33297;-82
2023/03/22 02:57:43;;;;;;;0.73;0.10;;;;;;;8.98;57.15;99852.03;5305589;26;33668;-82
2023/03/22 03:00:13;;;;;;;0.40;0.40;;;;;;;8.89;57.69;99852.38;5323036;26;34311;-82
2023/03/22 03:02:47;;;;;;;0.32;0.32;;;;;;;8.87;57.48;99837.53;5305227;26;33500;-82
2023/03/22 03:05:17;;;;;;;0.50;0.50;;;;;;;8.86;58.06;99847.19;5322944;26;33085;-83
2023/03/22 03:07:54;;;;;;;0.20;0.20;;;;;;;8.82;58.35;99842.97;5323013;26;33028;-85
2023/03/22 03:10:25;;;;;;;0.68;0.68;;;;;;;8.93;58.36;99840.81;5321006;26;33271;-83
2023/03/22 03:12:55;;;;;;;1.65;1.58;;;;;;;9.00;58.34;99843.22;5305316;26;33147;-84
2023/03/22 03:15:24;;;;;;;21.40;2.20;;;;;;;9.14;58.13;99851.47;5323415;26;33415;-84
2023/03/22 03:18:12;;;;;;;1.20;1.15;;;;;;;9.29;57.53;99845.62;5323511;26;34615;-84
2023/03/22 03:20:45;;;;;;;3.22;2.65;;;;;;;9.33;57.72;99844.59;5323670;26;33667;-84
2023/03/22 03:23:18;;;;;;;1.52;1.42;;;;;;;9.25;58.18;99838.75;5323156;26;32537;-84
2023/03/22 03:26:03;;;;;;;1.83;1.35;;;;;;;9.32;58.04;99845.53;5297788;26;33465;-83
2023/03/22 03:28:45;;;;;;;0.75;0.55;;;;;;;9.31;58.48;99854.34;5304997;26;32773;-85
2023/03/22 03:31:22;;;;;;;3.35;1.62;;;;;;;9.77;56.71;99857.81;5300545;26;33054;-87
2023/03/22 03:34:02;;;;;;;5.35;1.60;;;;;;;9.75;56.44;99865.81;5296679;26;33116;-85
2023/03/22 03:36:33;;;;;;;4.90;1.85;;;;;;;9.66;57.36;99875.84;5305363;26;32261;-85
2023/03/22 03:39:03;;;;;;;0.93;0.93;;;;;;;9.27;58.49;99879.09;5322565;26;34171;-85
2023/03/22 03:41:35;;;;;;;0.75;0.73;;;;;;;9.05;59.49;99883.41;5305611;26;33079;-85
2023/03/22 03:44:03;;;;;;;0.03;0.03;;;;;;;9.09;59.67;99874.50;5304144;26;33582;-82
2023/03/22 03:46:30;;;;;;;0.47;0.47;;;;;;;9.06;59.72;99879.84;5305120;26;32679;-81
2023/03/22 03:48:59;;;;;;;13.95;1.08;;;;;;;9.16;59.53;99875.97;5323218;26;33599;-82
2023/03/22 03:51:26;;;;;;;0.93;0.93;;;;;;;9.26;59.40;99877.38;5305181;26;34483;-82
2023/03/22 03:53:56;;;;;;;0.52;0.52;;;;;;;9.31;59.34;99877.22;5282392;27;32480;-83
2023/03/22 03:56:27;;;;;;;0.98;0.98;;;;;;;9.41;59.22;99882.06;5302933;26;33182;-85
2023/03/22 03:58:57;;;;;;;6.72;2.83;;;;;;;9.43;59.02;99872.31;5305345;26;33309;-83
2023/03/22 04:01:29;;;;;;;2.00;1.70;;;;;;;9.34;59.54;99877.94;5323972;26;35285;-83
2023/03/22 04:03:58;;;;;;;5.90;1.10;;;;;;;9.31;59.38;99864.87;5323157;26;33534;-83
2023/03/22 04:06:33;;;;;;;1.77;1.45;;;;;;;9.32;59.38;99863.97;5304605;26;32329;-83
2023/03/22 04:09:03;;;;;;;0.55;0.55;;;;;;;9.46;59.09;99866.09;5305475;26;33129;-83
2023/03/22 04:11:33;;;;;;;1.48;1.05;;;;;;;9.68;58.48;99874.00;5341442;26;34721;-87
2023/03/22 04:14:02;;;;;;;0.30;0.30;;;;;;;9.85;57.82;99876.84;5323196;26;34574;-86
2023/03/22 04:16:30;;;;;;;10.52;3.47;;;;;;;10.00;57.46;99875.38;5320689;26;32324;-86
2023/03/22 04:19:02;;;;;;;0.80;0.80;;;;;;;9.49;59.05;99877.38;5305906;26;32268;-82
2023/03/22 04:21:29;;;;;;;1.20;0.85;;;;;;;9.57;59.04;99881.47;5303638;26;33420;-83
2023/03/22 04:23:59;;;;;;;2.60;0.75;;;;;;;9.40;59.73;99883.00;5304565;26;33170;-83
2023/03/22 04:26:28;;;;;;;1.55;1.45;;;;;;;9.48;59.76;99870.34;5304730;26;32918;-82
2023/03/22 04:29:02;;;;;;;2.30;2.15;;;;;;;9.60;59.31;99870.84;5304702;26;33087;-83
2023/03/22 04:31:37;;;;;;;1.00;0.93;;;;;;;9.57;59.43;99866.53;5288696;26;33063;-83
2023/03/22 04:34:06;;;;;;;0.85;0.85;;;;;;;9.33;60.20;99878.00;5286689;26;34013;-83
2023/03/22 04:36:38;;;;;;;8.63;0.70;;;;;;;9.44;60.07;99881.06;5286676;26;34341;-83
2023/03/22 04:39:10;;;;;;;3.05;2.30;;;;;;;10.01;58.04;99877.94;5304977;26;34706;-83
2023/03/22 04:41:39;;;;;;;;;;;;;;;9.60;59.18;99871.69;5287053;26;32910;-84
2023/03/22 04:44:09;;;;;;;2.75;2.35;;;;;;;9.64;59.37;99880.34;5305167;26;33443;-84
2023/03/22 04:46:42;;;;;;;0.30;0.30;;;;;;;9.63;59.29;99881.25;5323768;26;33416;-84
2023/03/22 04:49:10;;;;;;;4.65;0.77;;;;;;;9.69;58.96;99887.16;5287394;26;32490;-84
2023/03/22 04:51:38;;;;;;;1.17;1.10;;;;;;;9.86;58.04;99877.72;5323515;26;34440;-84
2023/03/22 04:54:12;;;;;;;0.35;0.35;;;;;;;9.66;58.80;99881.13;5286951;26;32925;-86
2023/03/22 04:56:42;;;;;;;1.85;1.02;;;;;;;9.48;58.79;99883.53;5323457;26;32846;-86
2023/03/22 04:59:11;;;;;;;5.22;1.65;;;;;;;9.47;59.07;99889.75;5268499;26;32998;-85
2023/03/22 05:01:41;;;;;;;0.73;0.73;;;;;;;9.97;57.49;99897.47;5305992;26;33349;-85
2023/03/22 05:04:12;;;;;;;2.10;1.70;;;;;;;9.86;57.60;99885.63;5306109;26;33228;-84
2023/03/22 05:06:45;;;;;;;1.25;1.15;;;;;;;9.64;58.54;99888.25;5307195;26;33170;-83
2023/03/22 05:09:16;;;;;;;0.70;0.70;;;;;;;9.62;58.75;99895.34;5324656;26;33536;-83
2023/03/22 05:11:44;;;;;;;0.75;0.75;;;;;;;9.56;59.27;99895.59;5306265;26;33949;-83
2023/03/22 05:14:19;;;;;;;11.30;2.67;;;;;;;9.69;59.07;99888.94;5306934;26;34401;-83
2023/03/22 05:16:48;;;;;;;2.87;1.62;;;;;;;9.68;59.28;99884.56;5297297;26;32843;-84
2023/03/22 05:19:23;;;;;;;2.72;1.95;;;;;;;9.75;59.17;99892.19;5306617;26;32414;-84
2023/03/22 05:21:56;;;;;;;0.82;0.82;;;;;;;9.85;59.07;99886.53;5287831;26;34159;-84
2023/03/22 05:24:29;;;;;;;1.45;1.35;;;;;;;10.05;58.35;99891.03;5305824;26;34361;-84
2023/03/22 05:27:05;;;;;;;7.97;2.22;;;;;;;9.82;59.36;99892.78;5308473;26;33459;-84
2023/03/22 05:29:35;;;;;;;0.17;0.17;;;;;;;9.98;59.27;99890.44;5305877;26;33211;-84
2023/03/22 05:32:05;;;;;;;0.95;0.95;;;;;;;9.94;59.76;99900.22;5324116;26;34009;-84
2023/03/22 05:34:36;;;;;;;1.37;1.23;;;;;;;10.08;59.44;99912.03;5305960;26;33077;-82
2023/03/22 05:37:12;;;;;;;7.25;1.05;;;;;;;10.18;59.28;99910.72;5307290;26;33203;-82
2023/03/22 05:39:51;;;;;;;1.33;1.23;;;;;;;10.15;59.94;99895.00;5317270;26;34248;-82
2023/03/22 05:42:22;;;;;;;11.40;2.62;;;;;;;10.27;59.91;99898.97;5323539;26;33173;-82
2023/03/22 05:45:01;;;;;;;0.45;0.45;;;;;;;10.45;59.45;99893.81;5325535;26;32190;-83
2023/03/22 05:47:38;;;;;;;0.90;0.90;;;;;;;10.59;59.39;99895.00;5324555;26;35184;-83
2023/03/22 05:50:12;;;;;;;1.27;1.27;;;;;;;11.00;58.07;99899.34;5323049;26;33924;-83
2023/03/22 05:52:41;;;;;;;3.00;1.90;;;;;;;11.17;57.78;99908.34;5322175;26;33858;-83
2023/03/22 05:55:16;;;;;;;7.93;1.87;;;;;;;11.41;57.27;99909.00;5322666;26;33564;-85
2023/03/22 05:57:50;;;;;;;1.35;1.25;;;;;;;11.21;57.92;99910.78;5322982;26;33926;-83
2023/03/22 06:00:27;;;;;;;2.10;1.77;;;;;;;10.87;59.27;99910.50;5304980;26;33476;-83
2023/03/22 06:03:04;;;;;;;1.60;1.50;;;;;;;10.92;59.75;99919.09;5322225;26;33752;-83
2023/03/22 06:05:39;;;;;;;1.20;0.98;;;;;;;11.24;58.77;99909.75;5324001;26;34012;-85
2023/03/22 06:08:11;;;;;;;1.48;1.42;;;;;;;11.51;57.66;99916.44;5302580;26;32420;-86
2023/03/22 06:10:41;;;;;;;2.97;1.08;;;;;;;11.62;57.29;99923.88;5301259;26;32848;-86
2023/03/22 06:13:20;;;;;;;0.62;0.62;;;;;;;11.68;57.72;99926.28;5322817;26;34095;-87
2023/03/22 06:15:50;;;;;;;1.35;1.25;;;;;;;11.62;58.07;99921.25;5320120;26;32985;-87
2023/03/22 06:18:19;;;;;;;7.65;3.42;;;;;;;11.47;58.79;99922.81;5301961;26;32002;-87
2023/03/22 06:20:57;;;;;;;0.70;0.70;;;;;;;11.53;58.99;99919.88;5321093;26;33612;-87
2023/03/22 06:23:29;;;;;;;1.60;1.50;;;;;;;11.70;58.92;99916.47;5301886;26;33488;-86
2023/03/22 06:26:03;;;;;;;1.75;1.40;;;;;;;12.15;57.34;99909.94;5283539;26;32991;-86
2023/03/22 06:28:34;;;;;;;4.07;1.35;;;;;;;12.11;57.61;99921.62;5285121;26;31919;-86
2023/03/22 06:31:09;;;;;;;0.80;0.80;;;;;;;12.23;57.53;99926.31;5301991;26;32566;-85
2023/03/22 06:33:39;;;;;;;0.75;0.75;;;;;;;12.30;57.29;99930.41;5301981;26;33067;-89
2023/03/22 06:36:09;;;;;;;0.35;0.35;;;;;;;12.58;55.42;99929.03;5283712;26;32834;-89
2023/03/22 06:38:39;;;;;;;1.08;1.08;;;;;;;12.73;55.55;99932.72;5322072;26;32589;-90
2023/03/22 06:41:09;;;;;;;0.73;0.73;;;;;;;12.63;56.16;99923.50;5305432;26;32905;-90
2023/03/22 06:43:41;;;;;;;0.35;0.35;;;;;;;12.52;56.50;99929.31;5323948;26;33339;-90
2023/03/22 06:46:12;;;;;;;1.00;1.00;;;;;;;12.88;55.63;99931.06;5305841;26;32554;-91
2023/03/22 06:48:45;;;;;;;1.77;1.67;;;;;;;13.24;54.58;99934.47;5323900;26;32398;-90
2023/03/22 06:51:16;;;;;;;2.45;1.48;;;;;;;13.21;54.21;99934.63;5305403;26;32898;-89
2023/03/22 06:53:48;;;;;;;1.62;1.40;;;;;;;13.02;54.96;99925.91;5270011;26;33486;-91
2023/03/22 06:56:21;;;;;;;6.07;2.30;;;;;;;12.94;55.99;99926.31;5289285;26;33247;-91
2023/03/22 06:58:51;;;;;;;1.58;1.48;;;;;;;12.98;56.26;99919.06;5304948;26;32312;-91
2023/03/22 07:01:22;;;;;;;1.77;1.67;;;;;;;13.24;55.47;99923.03;5323350;26;32966;-91
2023/03/22 07:03:57;;;;;;;0.75;0.68;;;;;;;13.67;53.57;99932.19;5323591;26;33383;-91
2023/03/22 07:06:27;;;;;;;24.90;1.27;;;;;;;13.72;53.67;99937.25;5323484;26;32631;-91
2023/03/22 07:11:34;;;;;;;1.02;0.98;;;;;;;13.51;54.07;99941.94;5323579;26;33317;-91
2023/03/22 07:14:07;;;;;;;2.28;2.08;;;;;;;13.52;53.89;99940.97;5306304;26;34043;-90
2023/03/22 07:16:47;;;;;;;2.87;1.55;;;;;;;13.95;53.24;99947.47;5326029;26;34001;-90
2023/03/22 07:19:19;;;;;;;2.80;2.65;;;;;;;14.36;51.36;99941.66;5323290;26;32340;-89
2023/03/22 07:21:48;;;;;;;2.25;1.02;;;;;;;14.24;51.65;99935.25;5305487;26;32708;-90
2023/03/22 07:24:23;;;;;;;0.70;0.70;;;;;;;14.12;52.00;99943.03;5301923;26;33123;-90
2023/03/22 07:26:54;;;;;;;1.92;1.83;;;;;;;14.04;52.51;99941.66;5323047;26;32729;-91
2023/03/22 07:29:24;;;;;;;0.62;0.62;;;;;;;14.17;52.10;99940.97;5303335;26;32291;-90
2023/03/22 07:31:59;;;;;;;0.13;0.13;;;;;;;13.97;50.88;99945.59;5303629;26;32953;-90
2023/03/22 07:34:30;;;;;;;1.25;1.05;;;;;;;14.12;49.84;99943.03;5284435;26;32669;-90
2023/03/22 07:37:08;;;;;;;0.60;0.60;;;;;;;14.33;49.88;99947.13;5304202;26;33321;-90
2023/03/22 07:39:43;;;;;;;0.50;0.50;;;;;;;14.32;50.00;99943.59;5302900;26;32421;-89
2023/03/22 07:42:12;;;;;;;1.75;1.45;;;;;;;14.78;48.65;99948.13;5319783;26;33595;-90
2023/03/22 07:44:48;;;;;;;1.42;1.35;;;;;;;14.79;48.41;99949.81;5302803;26;33045;-90
2023/03/22 07:47:31;;;;;;;0.68;0.68;;;;;;;14.73;48.54;99939.56;5304673;26;33069;-85
2023/03/22 07:50:12;;;;;;;0.80;0.80;;;;;;;14.85;47.84;99936.16;5322878;26;33425;-87
2023/03/22 07:52:54;;;;;;;0.77;0.62;;;;;;;14.93;47.84;99936.56;5294680;26;34603;-86
2023/03/22 07:55:26;;;;;;;0.75;0.57;;;;;;;15.17;46.95;99944.03;5298021;26;33257;-86
2023/03/22 07:58:03;;;;;;;1.33;1.23;;;;;;;14.96;47.83;99951.50;5321794;26;33599;-86
2023/03/22 08:00:37;;;;;;;1.15;1.05;;;;;;;15.22;47.56;99948.13;5302823;26;33588;-88
2023/03/22 08:03:12;;;;;;;1.42;0.82;;;;;;;15.03;47.38;99926.25;5320160;26;32481;-87
2023/03/22 08:06:03;;;;;;;1.40;1.30;;;;;;;15.23;47.20;99938.31;5315191;26;34563;-89
2023/03/22 08:08:32;;;;;;;1.33;0.90;;;;;;;15.22;47.52;99936.62;5320847;26;34295;-88
2023/03/22 08:11:02;;;;;;;1.42;1.33;;;;;;;15.27;47.22;99931.87;5320019;26;33433;-88
2023/03/22 08:13:45;;;;;;;3.25;1.30;;;;;;;15.13;47.73;99934.50;5322311;26;35297;-88
2023/03/22 08:16:21;;;;;;;2.87;1.52;;;;;;;15.32;46.63;99943.09;5338476;26;33698;-88
2023/03/22 08:18:50;;;;;;;;;;;;;;;15.44;47.04;99937.03;5320445;26;32838;-86
2023/03/22 08:21:20;;;;;;;2.58;1.05;;;;;;;15.41;46.78;99947.00;5319786;26;32989;-87
2023/03/22 08:23:49;;;;;;;0.75;0.75;;;;;;;15.43;46.45;99940.66;5320473;26;33609;-85
2023/03/22 08:26:22;;;;;;;1.12;0.93;;;;;;;15.39;46.76;99944.44;5302470;26;33333;-84
2023/03/22 08:28:55;;;;;;;;;;;;;;;15.42;46.47;99943.38;5320555;26;33595;-85
2023/03/22 08:31:25;;;;;;;0.90;0.90;;;;;;;15.69;45.80;99943.53;5302487;26;32790;-86
2023/03/22 08:33:57;;;;;;;2.58;2.12;;;;;;;16.01;44.85;99936.16;5338118;26;33544;-86
2023/03/22 08:36:26;;;;;;;0.80;0.80;;;;;;;15.81;45.80;99945.44;5322046;26;33811;-85
2023/03/22 08:38:56;;;;;;;1.15;1.12;;;;;;;15.32;47.52;99946.59;5323742;26;34291;-85
2023/03/22 08:41:26;;;;;;;1.25;1.15;;;;;;;15.81;45.88;99950.75;5342249;26;34154;-85
2023/03/22 08:44:01;;;;;;;1.08;1.02;;;;;;;16.00;45.32;99950.41;5325157;26;34645;-85
2023/03/22 08:46:34;;;;;;;3.83;1.37;;;;;;;16.24;44.79;99956.00;5324143;26;34332;-88
2023/03/22 08:49:10;;;;;;;1.27;1.17;;;;;;;16.35;44.59;99950.81;5325383;26;34410;-89
2023/03/22 08:51:43;;;;;;;0.88;0.85;;;;;;;16.13;44.81;99962.84;5304552;26;34110;-89
2023/03/22 08:54:13;;;;;;;9.30;4.53;;;;;;;15.88;46.29;99946.72;5324957;26;32414;-87
2023/03/22 08:56:49;;;;;;;1.27;1.17;;;;;;;15.85;45.60;99946.91;5325442;26;33974;-88
2023/03/22 08:59:19;;;;;;;3.08;1.73;;;;;;;15.68;46.01;99955.13;5306088;26;33082;-88
2023/03/22 09:01:50;;;;;;;1.98;1.77;;;;;;;15.78;46.19;99948.28;5297437;26;34805;-88
2023/03/22 09:04:19;;;;;;;0.75;0.75;;;;;;;15.73;46.55;99942.38;5323604;26;33513;-87
2023/03/22 09:06:54;;;;;;;1.92;0.80;;;;;;;15.69;45.77;99946.19;5306821;26;35708;-88
2023/03/22 09:09:28;;;;;;;1.27;1.17;;;;;;;15.78;45.26;99940.28;5307257;26;34767;-86
2023/03/22 09:12:03;;;;;;;0.93;0.80;;;;;;;15.72;46.05;99940.69;5300351;26;32896;-88
2023/03/22 09:14:35;;;;;;;3.97;1.55;;;;;;;15.95;45.42;99941.84;5306380;26;32787;-88
2023/03/22 09:17:04;;;;;;;1.30;1.23;;;;;;;15.85;45.74;99952.25;5286622;26;32245;-87
2023/03/22 09:19:33;;;;;;;0.80;0.80;;;;;;;15.70;46.38;99953.22;5305726;26;34261;-87
2023/03/22 09:22:05;;;;;;;0.47;0.47;;;;;;;15.97;45.53;99951.47;5323823;26;33867;-87
2023/03/22 09:24:38;;;;;;;1.70;1.60;;;;;;;16.19;45.31;99955.41;5325018;26;33941;-87
2023/03/22 09:27:07;;;;;;;2.95;1.77;;;;;;;16.15;45.34;99954.78;5299870;26;32578;-87
2023/03/22 09:29:41;;;;;;;4.87;3.00;;;;;;;16.32;45.05;99943.88;5322754;26;33616;-89
2023/03/22 09:32:12;;;;;;;9.20;1.75;;;;;;;16.25;45.57;99944.38;5323778;26;34078;-87
2023/03/22 09:34:41;;;;;;;3.10;2.90;;;;;;;16.16;45.86;99940.50;5341423;26;34380;-87
2023/03/22 09:37:21;;;;;;;6.32;3.95;;;;;;;16.24;45.81;99937.34;5322982;26;33241;-87
2023/03/22 09:39:52;;;;;;;1.05;1.02;;;;;;;16.38;45.89;99934.66;5305750;26;33129;-87
2023/03/22 09:42:31;;;;;;;4.22;1.67;;;;;;;16.48;45.05;99927.75;5305115;26;32968;-86
2023/03/22 09:45:14;;;;;;;2.40;1.60;;;;;;;16.44;44.59;99928.91;5325167;26;35614;-87
2023/03/22 09:47:45;;;;;;;0.57;0.57;;;;;;;16.52;44.62;99929.25;5304896;26;32860;-87
2023/03/22 09:50:25;;;;;;;1.20;1.10;;;;;;;16.65;44.42;99931.94;5304231;26;33269;-87
2023/03/22 09:52:57;;;;;;;2.58;2.35;;;;;;;16.44;44.52;99928.06;5304709;26;33731;-87
2023/03/22 09:55:37;;;;;;;0.93;0.88;;;;;;;16.53;44.54;99933.63;5286834;26;34262;-87
2023/03/22 09:58:45;;;;;;;1.70;1.60;;;;;;;16.52;44.62;99941.69;5323955;26;34760;-87
2023/03/22 10:01:36;;;;;;;5.90;1.90;;;;;;;16.58;44.55;99934.19;5252878;26;33185;-86
2023/03/22 10:04:25;;;;;;;1.90;0.90;;;;;;;16.31;44.81;99933.31;5287709;26;33555;-86
2023/03/22 10:07:19;;;;;;;0.52;0.52;;;;;;;16.51;44.85;99930.19;5285584;26;32475;-87
2023/03/22 10:10:00;;;;;;;4.25;1.45;;;;;;;16.68;44.45;99920.22;5331372;26;34565;-86
2023/03/22 10:12:34;;;;;;;5.00;2.12;;;;;;;16.56;44.92;99925.41;5301964;26;33285;-87
2023/03/22 10:15:13;;;;;;;5.97;1.70;;;;;;;16.40;44.67;99930.06;5305017;26;32833;-86
2023/03/22 10:17:47;;;;;;;2.97;2.72;;;;;;;16.56;45.03;99922.75;5322270;26;34407;-85
2023/03/22 10:20:42;;;;;;;2.58;2.00;;;;;;;16.58;45.17;99920.84;5324089;26;35003;-88
2023/03/22 10:23:38;;;;;;;0.65;0.65;;;;;;;16.26;44.70;99933.63;5303495;26;33893;-88
2023/03/22 10:26:28;;;;;;;1.50;1.40;;;;;;;16.42;44.81;99919.28;5323027;26;33583;-86
2023/03/22 10:29:11;;;;;;;2.92;2.72;;;;;;;16.42;45.42;99929.94;5304095;26;33389;-86
2023/03/22 10:31:42;;;;;;;1.87;1.65;;;;;;;16.19;46.04;99923.44;5286439;26;33346;-87
2023/03/22 10:34:28;;;;;;;0.77;0.77;;;;;;;16.39;45.99;99925.69;5305472;26;33103;-86
2023/03/22 10:37:05;;;;;;;1.52;1.42;;;;;;;16.49;45.09;99920.59;5288036;26;32542;-85
2023/03/22 10:39:45;;;;;;;2.35;2.15;;;;;;;16.55;44.58;99918.38;5306211;26;35824;-86
2023/03/22 10:42:20;;;;;;;1.25;1.15;;;;;;;16.05;45.54;99924.37;5286978;26;33922;-86
2023/03/22 10:44:52;;;;;;;0.57;0.52;;;;;;;16.55;44.63;99915.72;5296023;26;32446;-86
2023/03/22 10:47:33;;;;;;;2.33;1.67;;;;;;;16.75;44.60;99921.56;5302398;26;33558;-86
2023/03/22 10:50:09;;;;;;;1.55;1.45;;;;;;;16.80;44.34;99909.59;5284840;26;33140;-86
2023/03/22 10:52:50;;;;;;;2.80;1.87;;;;;;;16.50;45.37;99916.97;5303800;26;32813;-87
2023/03/22 10:55:20;;;;;;;2.00;1.83;;;;;;;16.56;45.09;99906.75;5303765;26;32620;-86
2023/03/22 10:58:09;;;;;;;2.30;2.10;;;;;;;16.73;45.00;99915.47;5284266;26;33475;-86
2023/03/22 11:00:55;;;;;;;2.30;2.17;;;;;;;16.64;45.46;99914.25;5320998;26;33381;-86
2023/03/22 11:03:27;;;;;;;2.22;2.03;;;;;;;16.82;45.38;99914.84;5303589;26;33401;-87
2023/03/22 11:05:59;;;;;;;2.12;1.77;;;;;;;16.82;45.29;99906.84;5302730;26;33313;-87
2023/03/22 11:08:57;;;;;;;2.42;2.05;;;;;;;16.56;45.27;99912.06;5321394;26;34116;-87
2023/03/22 11:11:30;;;;;;;0.77;0.75;;;;;;;16.80;45.26;99908.75;5314211;26;32405;-87
2023/03/22 11:14:14;;;;;;;1.30;1.25;;;;;;;17.08;44.64;99897.06;5340786;26;34757;-87
2023/03/22 11:16:55;;;;;;;0.75;0.75;;;;;;;16.91;44.63;99895.56;5289907;26;34107;-88
2023/03/22 11:19:32;;;;;;;2.55;1.90;;;;;;;17.18;44.50;99891.94;5320678;26;34565;-86
2023/03/22 11:22:05;;;;;;;1.00;0.88;;;;;;;17.40;44.82;99882.31;5320928;26;33797;-85
2023/03/22 11:24:34;;;;;;;1.37;1.27;;;;;;;17.22;44.13;99877.44;5319059;26;33710;-86
2023/03/22 11:27:18;;;;;;;1.23;1.12;;;;;;;17.14;44.65;99877.97;5301784;26;33774;-87
2023/03/22 11:29:57;;;;;;;1.60;1.05;;;;;;;16.64;45.46;99883.09;5303087;26;32163;-87
2023/03/22 11:32:26;;;;;;;3.97;2.08;;;;;;;17.08;44.95;99871.22;5320397;26;34780;-87
2023/03/22 11:35:01;;;;;;;11.55;1.80;;;;;;;16.93;45.52;99876.78;5283618;26;33607;-86
2023/03/22 11:37:30;;;;;;;4.50;1.23;;;;;;;17.27;44.28;99869.94;5302091;26;34541;-86
2023/03/22 11:40:03;;;;;;;1.25;1.02;;;;;;;17.27;44.18;99864.63;5302637;26;32472;-85
2023/03/22 11:42:34;;;;;;;1.20;1.15;;;;;;;17.67;43.43;99854.63;5303231;26;33218;-87
2023/03/22 11:45:14;;;;;;;2.80;1.12;;;;;;;18.11;42.08;99858.56;5303662;26;33327;-87
2023/03/22 11:47:44;;;;;;;1.92;1.05;;;;;;;17.98;42.88;99853.28;5323310;26;33220;-87
2023/03/22 11:50:26;;;;;;;1.48;1.37;;;;;;;17.99;42.92;99846.09;5323798;26;34079;-87
2023/03/22 11:52:56;;;;;;;1.23;1.20;;;;;;;17.69;42.95;99850.03;5286978;26;32197;-86
2023/03/22 11:55:30;;;;;;;2.10;1.70;;;;;;;17.86;42.76;99851.50;5324004;26;33643;-86
2023/03/22 11:58:03;;;;;;;3.87;2.35;;;;;;;18.32;42.67;99850.75;5304806;26;33300;-86
2023/03/22 12:00:36;;;;;;;2.70;1.90;;;;;;;18.36;43.06;99849.56;5323306;26;32746;-86
2023/03/22 12:03:19;;;;;;;5.55;2.70;;;;;;;18.25;42.34;99847.72;5305768;26;32728;-86
2023/03/22 12:05:50;;;;;;;1.52;1.37;;;;;;;18.45;42.54;99848.87;5323567;26;34838;-86
2023/03/22 12:08:41;;;;;;;17.85;2.80;;;;;;;18.33;42.57;99841.81;5323729;26;34341;-86
2023/03/22 12:11:29;;;;;;;2.37;2.17;;;;;;;18.50;42.23;99843.19;5305576;26;33516;-87
2023/03/22 12:14:08;;;;;;;1.05;1.02;;;;;;;18.65;42.25;99848.22;5302994;26;33986;-86